createdAt,value
2018-06-17T00:00:08.465Z,11.33
2018-06-17T00:02:37.208Z,11.43
2018-06-17T00:05:06.226Z,11.40
2018-06-17T00:07:35.070Z,11.73
2018-06-17T00:10:04.300Z,10.57
2018-06-17T00:12:33.053Z,11.37
2018-06-17T00:15:01.886Z,11.77
2018-06-17T00:17:30.731Z,12.30
2018-06-17T00:19:59.567Z,14.60
2018-06-17T00:22:28.342Z,13.47
2018-06-17T00:24:57.065Z,13.43
2018-06-17T00:27:25.946Z,12.83
2018-06-17T00:29:54.921Z,12.60
2018-06-17T00:32:23.711Z,12.70
2018-06-17T00:34:52.507Z,13.03
2018-06-17T00:37:21.379Z,12.63
2018-06-17T00:39:50.111Z,12.57
2018-06-17T00:42:18.868Z,13.07
2018-06-17T00:44:47.652Z,11.90
2018-06-17T00:47:16.577Z,11.93
2018-06-17T00:49:45.310Z,13.00
2018-06-17T00:52:13.873Z,12.33
2018-06-17T00:54:42.502Z,11.70
2018-06-17T00:57:22.922Z,12.27
2018-06-17T00:59:58.413Z,12.00
2018-06-17T01:02:27.205Z,12.17
2018-06-17T01:04:55.968Z,11.90
2018-06-17T01:07:24.565Z,12.67
2018-06-17T01:09:53.026Z,12.13
2018-06-17T01:12:21.676Z,11.47
2018-06-17T01:14:50.437Z,12.70
2018-06-17T01:17:19.217Z,11.63
2018-06-17T01:19:47.972Z,11.73
2018-06-17T01:22:16.716Z,12.10
2018-06-17T01:24:45.583Z,11.43
2018-06-17T01:27:14.336Z,10.80
2018-06-17T01:29:43.161Z,11.27
2018-06-17T01:32:11.928Z,11.97
2018-06-17T01:34:40.539Z,12.60
2018-06-17T01:37:09.269Z,11.23
2018-06-17T01:39:38.108Z,11.53
2018-06-17T01:42:06.853Z,10.90
2018-06-17T01:44:36.002Z,11.93
2018-06-17T01:47:04.783Z,11.37
2018-06-17T01:49:33.554Z,11.03
2018-06-17T01:52:02.360Z,11.20
2018-06-17T01:54:31.118Z,12.60
2018-06-17T01:56:59.948Z,11.83
2018-06-17T01:59:28.835Z,11.53
2018-06-17T02:01:57.578Z,12.20
2018-06-17T02:04:31.898Z,11.20
2018-06-17T02:07:06.216Z,11.43
2018-06-17T02:09:40.533Z,11.13
2018-06-17T02:12:14.924Z,11.30
2018-06-17T02:14:49.438Z,11.17
2018-06-17T02:17:18.539Z,11.53
2018-06-17T02:19:47.303Z,10.43
2018-06-17T02:22:16.026Z,11.00
2018-06-17T02:24:44.878Z,11.93
2018-06-17T02:27:13.733Z,11.27
2018-06-17T02:29:42.454Z,11.60
2018-06-17T02:32:11.289Z,10.37
2018-06-17T02:34:40.037Z,11.20
2018-06-17T02:37:09.651Z,11.53
2018-06-17T02:39:38.440Z,11.60
2018-06-17T02:42:07.972Z,11.90
2018-06-17T02:44:36.960Z,11.30
2018-06-17T02:47:11.272Z,11.77
2018-06-17T02:49:44.486Z,11.40
2018-06-17T02:52:18.932Z,12.33
2018-06-17T02:54:48.274Z,12.30
2018-06-17T02:57:18.339Z,12.00
2018-06-17T02:59:47.369Z,12.20
2018-06-17T03:02:16.630Z,12.03
2018-06-17T03:04:45.374Z,11.47
2018-06-17T03:07:14.234Z,11.27
2018-06-17T03:09:42.839Z,12.03
2018-06-17T03:12:11.685Z,12.10
2018-06-17T03:14:40.537Z,12.23
2018-06-17T03:17:09.327Z,12.40
2018-06-17T03:19:38.074Z,12.40
2018-06-17T03:22:06.894Z,12.90
2018-06-17T03:24:41.156Z,12.33
2018-06-17T03:27:15.446Z,12.47
2018-06-17T03:29:49.668Z,12.23
2018-06-17T03:32:24.050Z,11.63
2018-06-17T03:34:58.320Z,12.43
2018-06-17T03:37:27.054Z,13.47
2018-06-17T03:39:55.821Z,12.60
2018-06-17T03:42:24.565Z,12.37
2018-06-17T03:44:53.326Z,13.03
2018-06-17T03:47:22.104Z,12.87
2018-06-17T03:49:50.711Z,13.47
2018-06-17T03:52:19.348Z,13.50
2018-06-17T03:54:48.122Z,13.77
2018-06-17T03:57:16.973Z,13.60
2018-06-17T03:59:45.710Z,13.50
2018-06-17T04:02:14.553Z,12.80
2018-06-17T04:04:48.841Z,13.33
2018-06-17T04:07:17.622Z,12.23
2018-06-17T04:09:46.444Z,13.03
2018-06-17T04:12:15.302Z,12.70
2018-06-17T04:14:44.128Z,13.53
2018-06-17T04:17:14.954Z,12.87
2018-06-17T04:19:45.297Z,13.00
2018-06-17T04:22:14.277Z,13.37
2018-06-17T04:24:43.092Z,13.60
2018-06-17T04:27:11.845Z,13.17
2018-06-17T04:29:41.555Z,13.67
2018-06-17T04:32:10.295Z,13.67
2018-06-17T04:34:39.146Z,13.33
2018-06-17T04:37:07.932Z,13.43
2018-06-17T04:39:36.707Z,12.87
2018-06-17T04:42:05.321Z,12.40
2018-06-17T04:44:33.955Z,12.87
2018-06-17T04:47:02.807Z,13.47
2018-06-17T04:49:31.536Z,13.70
2018-06-17T04:52:00.302Z,12.97
2018-06-17T04:54:29.048Z,12.80
2018-06-17T04:56:57.804Z,13.00
2018-06-17T04:59:26.367Z,13.87
2018-06-17T05:01:55.022Z,13.50
2018-06-17T05:04:23.796Z,13.40
2018-06-17T05:06:52.552Z,14.13
2018-06-17T05:09:21.167Z,13.00
2018-06-17T05:11:49.641Z,13.80
2018-06-17T05:14:18.279Z,14.50
2018-06-17T05:16:47.024Z,13.60
2018-06-17T05:19:15.760Z,14.03
2018-06-17T05:21:44.592Z,13.87
2018-06-17T05:24:13.365Z,13.83
2018-06-17T05:26:42.131Z,13.90
2018-06-17T05:29:11.139Z,13.47
2018-06-17T05:31:39.962Z,12.70
2018-06-17T05:34:08.850Z,13.73
2018-06-17T05:36:37.651Z,13.03
2018-06-17T05:39:09.007Z,13.40
2018-06-17T05:41:37.754Z,12.23
2018-06-17T05:44:06.785Z,11.97
2018-06-17T05:46:36.085Z,12.20
2018-06-17T05:49:04.991Z,11.93
2018-06-17T05:51:34.176Z,12.70
2018-06-17T05:54:02.967Z,11.90
2018-06-17T05:56:31.731Z,12.17
2018-06-17T05:59:00.528Z,11.90
2018-06-17T06:01:29.278Z,13.70
2018-06-17T06:03:58.061Z,11.20
2018-06-17T06:06:26.804Z,11.10
2018-06-17T06:08:55.725Z,11.43
2018-06-17T06:11:24.560Z,11.27
2018-06-17T06:13:53.330Z,10.97
2018-06-17T06:16:22.045Z,10.97
2018-06-17T06:18:50.844Z,11.17
2018-06-17T06:21:20.529Z,11.03
2018-06-17T06:23:49.127Z,10.70
2018-06-17T06:26:17.591Z,11.43
2018-06-17T06:28:46.495Z,10.40
2018-06-17T06:31:15.517Z,10.33
2018-06-17T06:33:44.248Z,10.40
2018-06-17T06:36:13.038Z,10.00
2018-06-17T06:38:41.768Z,9.47
2018-06-17T06:41:10.516Z,9.53
2018-06-17T06:43:39.333Z,9.30
2018-06-17T06:46:08.071Z,9.77
2018-06-17T06:48:36.819Z,9.10
2018-06-17T06:51:05.669Z,9.83
2018-06-17T06:53:34.478Z,9.13
2018-06-17T06:56:03.179Z,9.47
2018-06-17T06:58:31.626Z,9.50
2018-06-17T07:01:01.066Z,8.77
2018-06-17T07:03:41.549Z,9.03
2018-06-17T07:06:21.953Z,8.80
2018-06-17T07:09:02.316Z,8.47
2018-06-17T07:11:31.036Z,8.77
2018-06-17T07:13:59.837Z,8.60
2018-06-17T07:16:40.236Z,8.43
2018-06-17T07:19:08.917Z,8.47
2018-06-17T07:21:37.566Z,8.47
2018-06-17T07:24:06.146Z,8.20
2018-06-17T07:26:47.464Z,8.50
2018-06-17T07:29:28.900Z,8.80
2018-06-17T07:31:57.523Z,8.03
2018-06-17T07:34:26.006Z,6.93
2018-06-17T07:36:54.452Z,7.53
2018-06-17T07:39:47.136Z,8.00
2018-06-17T07:42:15.648Z,7.83
2018-06-17T07:44:44.117Z,7.67
2018-06-17T07:47:12.700Z,8.07
2018-06-17T07:49:52.951Z,8.00
2018-06-17T07:52:34.513Z,8.10
2018-06-17T07:55:02.875Z,8.33
2018-06-17T07:57:32.310Z,8.00
2018-06-17T08:00:00.758Z,7.80
2018-06-17T08:02:29.351Z,7.83
2018-06-17T08:04:57.877Z,7.47
2018-06-17T08:07:26.408Z,7.73
2018-06-17T08:09:54.930Z,7.90
2018-06-17T08:12:23.585Z,8.20
2018-06-17T08:14:52.275Z,8.43
2018-06-17T08:17:20.799Z,7.33
2018-06-17T08:19:49.333Z,7.60
2018-06-17T08:22:17.830Z,7.20
2018-06-17T08:24:46.331Z,7.97
2018-06-17T08:27:14.899Z,8.23
2018-06-17T08:29:43.418Z,8.50
2018-06-17T08:32:11.940Z,8.40
2018-06-17T08:34:40.451Z,8.83
2018-06-17T08:37:08.823Z,8.73
2018-06-17T08:39:37.249Z,7.70
2018-06-17T08:42:05.858Z,8.43
2018-06-17T08:44:34.373Z,8.47
2018-06-17T08:47:02.755Z,7.87
2018-06-17T08:49:31.146Z,7.37
2018-06-17T08:51:59.639Z,7.20
2018-06-17T08:54:28.147Z,6.60
2018-06-17T08:56:56.865Z,6.77
2018-06-17T08:59:25.385Z,6.50
2018-06-17T09:01:54.028Z,6.20
2018-06-17T09:04:22.565Z,6.60
2018-06-17T09:06:51.169Z,6.53
2018-06-17T09:09:19.751Z,6.90
2018-06-17T09:11:48.233Z,6.70
2018-06-17T09:14:16.758Z,6.53
2018-06-17T09:16:45.332Z,6.50
2018-06-17T09:19:13.813Z,6.20
2018-06-17T09:21:42.394Z,5.37
2018-06-17T09:24:10.901Z,5.10
2018-06-17T09:26:39.263Z,5.70
2018-06-17T09:29:07.530Z,5.13
2018-06-17T09:31:35.976Z,5.83
2018-06-17T09:34:04.278Z,5.67
2018-06-17T09:36:32.800Z,5.10
2018-06-17T09:39:01.228Z,5.57
2018-06-17T09:41:29.742Z,5.73
2018-06-17T09:43:58.227Z,5.10
2018-06-17T09:46:26.758Z,5.87
2018-06-17T09:48:55.256Z,6.07
2018-06-17T09:51:23.834Z,6.00
2018-06-17T09:53:52.355Z,5.13
2018-06-17T09:56:20.877Z,5.17
2018-06-17T09:58:49.423Z,5.63
2018-06-17T10:01:18.017Z,4.80
2018-06-17T10:03:46.604Z,5.77
2018-06-17T10:06:15.194Z,5.07
2018-06-17T10:08:43.700Z,5.30
2018-06-17T10:11:12.173Z,4.93
2018-06-17T10:13:42.875Z,5.80
2018-06-17T10:16:12.055Z,5.30
2018-06-17T10:18:40.786Z,5.40
2018-06-17T10:21:09.476Z,5.27
2018-06-17T10:23:38.240Z,5.57
2018-06-17T10:26:06.992Z,4.80
2018-06-17T10:28:36.316Z,5.43
2018-06-17T10:31:06.157Z,5.30
2018-06-17T10:33:35.868Z,5.60
2018-06-17T10:36:04.652Z,5.23
2018-06-17T10:38:33.481Z,4.83
2018-06-17T10:41:02.419Z,4.90
2018-06-17T10:43:32.064Z,5.03
2018-06-17T10:46:01.023Z,4.30
2018-06-17T10:48:29.745Z,4.77
2018-06-17T10:50:58.521Z,4.60
2018-06-17T10:53:27.428Z,4.83
2018-06-17T10:55:56.260Z,5.07
2018-06-17T10:58:25.163Z,5.13
2018-06-17T11:00:54.008Z,5.00
2018-06-17T11:03:22.745Z,4.80
2018-06-17T11:05:51.549Z,4.67
2018-06-17T11:08:20.284Z,4.30
2018-06-17T11:10:49.112Z,4.47
2018-06-17T11:13:17.925Z,3.70
2018-06-17T11:15:46.664Z,4.17
2018-06-17T11:18:15.396Z,4.27
2018-06-17T11:20:44.121Z,4.57
2018-06-17T11:23:12.888Z,4.10
2018-06-17T11:25:41.641Z,3.97
2018-06-17T11:28:10.613Z,4.23
2018-06-17T11:30:39.361Z,4.37
2018-06-17T11:33:08.109Z,4.33
2018-06-17T11:35:36.841Z,5.57
2018-06-17T11:38:05.578Z,4.73
2018-06-17T11:40:34.274Z,4.93
2018-06-17T11:43:02.746Z,5.20
2018-06-17T11:45:31.436Z,4.77
2018-06-17T11:48:00.223Z,4.70
2018-06-17T11:50:29.096Z,4.90
2018-06-17T11:52:58.008Z,5.00
2018-06-17T11:55:26.764Z,5.70
2018-06-17T11:57:55.623Z,5.20
2018-06-17T12:00:24.374Z,5.40
2018-06-17T12:02:53.229Z,5.23
2018-06-17T12:05:22.138Z,5.50
2018-06-17T12:07:50.739Z,5.40
2018-06-17T12:10:19.397Z,5.23
2018-06-17T12:12:48.128Z,4.80
2018-06-17T12:15:17.176Z,6.13
2018-06-17T12:17:45.986Z,4.93
2018-06-17T12:20:14.580Z,5.20
2018-06-17T12:22:43.191Z,5.77
2018-06-17T12:25:12.976Z,5.03
2018-06-17T12:27:41.701Z,5.47
2018-06-17T12:30:10.450Z,5.70
2018-06-17T12:32:40.027Z,5.10
2018-06-17T12:35:08.918Z,4.60
2018-06-17T12:37:38.054Z,5.07
2018-06-17T12:40:06.896Z,5.43
2018-06-17T12:42:35.616Z,5.07
2018-06-17T12:45:04.264Z,5.00
2018-06-17T12:47:32.909Z,5.43
2018-06-17T12:50:02.130Z,5.30
2018-06-17T12:52:30.922Z,5.10
2018-06-17T12:54:59.639Z,5.10
2018-06-17T12:57:28.429Z,5.07
2018-06-17T12:59:57.264Z,5.20
2018-06-17T13:02:25.976Z,5.13
2018-06-17T13:04:54.800Z,5.43
2018-06-17T13:07:23.584Z,5.37
2018-06-17T13:09:52.381Z,5.10
2018-06-17T13:12:21.206Z,5.10
2018-06-17T13:14:50.106Z,6.03
2018-06-17T13:17:18.902Z,5.50
2018-06-17T13:19:47.723Z,5.73
2018-06-17T13:22:16.481Z,5.57
2018-06-17T13:24:45.343Z,4.87
2018-06-17T13:27:14.078Z,5.10
2018-06-17T13:29:42.821Z,5.43
2018-06-17T13:32:12.123Z,5.63
2018-06-17T13:34:40.718Z,5.00
2018-06-17T13:37:09.194Z,6.27
2018-06-17T13:39:37.784Z,5.63
2018-06-17T13:42:06.420Z,5.07
2018-06-17T13:44:35.250Z,5.67
2018-06-17T13:47:03.820Z,5.20
2018-06-17T13:49:32.418Z,5.10
2018-06-17T13:52:01.165Z,5.03
2018-06-17T13:54:29.913Z,4.87
2018-06-17T13:56:58.699Z,5.63
2018-06-17T13:59:27.419Z,5.20
2018-06-17T14:01:56.222Z,5.73
2018-06-17T14:04:25.028Z,5.43
2018-06-17T14:06:53.760Z,5.70
2018-06-17T14:09:22.507Z,5.27
2018-06-17T14:11:51.224Z,5.33
2018-06-17T14:14:19.957Z,5.77
2018-06-17T14:16:48.693Z,4.90
2018-06-17T14:19:17.553Z,8.03
2018-06-17T14:21:46.172Z,6.13
2018-06-17T14:24:14.694Z,5.50
2018-06-17T14:26:43.411Z,4.53
2018-06-17T14:29:12.137Z,4.50
2018-06-17T14:31:40.880Z,4.87
2018-06-17T14:34:09.480Z,5.53
2018-06-17T14:36:38.182Z,4.73
2018-06-17T14:39:08.723Z,4.67
2018-06-17T14:41:37.573Z,4.83
2018-06-17T14:44:11.786Z,5.10
2018-06-17T14:46:46.034Z,4.80
2018-06-17T14:49:20.348Z,4.63
2018-06-17T14:51:51.507Z,4.60
2018-06-17T14:54:21.316Z,4.40
2018-06-17T14:56:50.062Z,5.00
2018-06-17T14:59:18.859Z,4.20
2018-06-17T15:01:47.685Z,4.27
2018-06-17T15:04:16.392Z,4.20
2018-06-17T15:06:45.689Z,3.80
2018-06-17T15:09:14.444Z,3.53
2018-06-17T15:11:43.017Z,2.90
2018-06-17T15:14:11.702Z,3.37
2018-06-17T15:16:40.330Z,3.53
2018-06-17T15:19:08.968Z,3.80
2018-06-17T15:21:38.046Z,4.80
2018-06-17T15:24:06.673Z,3.87
2018-06-17T15:26:36.084Z,3.30
2018-06-17T15:29:05.025Z,2.93
2018-06-17T15:31:39.447Z,2.53
2018-06-17T15:34:13.752Z,2.40
2018-06-17T15:36:47.969Z,2.90
2018-06-17T15:39:22.215Z,2.37
2018-06-17T15:41:50.862Z,2.17
2018-06-17T15:44:20.533Z,2.40
2018-06-17T15:46:49.283Z,2.37
2018-06-17T15:49:18.091Z,2.37
2018-06-17T15:51:46.704Z,3.07
2018-06-17T15:54:15.134Z,2.57
2018-06-17T15:56:43.872Z,2.70
2018-06-17T15:59:12.600Z,2.40
2018-06-17T16:01:41.341Z,2.30
2018-06-17T16:04:10.096Z,2.33
2018-06-17T16:06:38.824Z,2.27
2018-06-17T16:09:09.558Z,2.80
2018-06-17T16:11:43.933Z,2.07
2018-06-17T16:14:18.260Z,2.10
2018-06-17T16:16:52.443Z,2.40
2018-06-17T16:19:26.834Z,2.17
2018-06-17T16:21:55.617Z,1.67
2018-06-17T16:24:25.233Z,1.87
2018-06-17T16:26:54.226Z,2.00
2018-06-17T16:29:23.009Z,1.90
2018-06-17T16:31:51.754Z,1.77
2018-06-17T16:34:20.556Z,4.97
2018-06-17T16:36:49.478Z,3.27
2018-06-17T16:39:18.235Z,2.00
2018-06-17T16:41:47.024Z,2.33
2018-06-17T16:44:15.567Z,1.83
2018-06-17T16:46:44.219Z,2.07
2018-06-17T16:49:12.991Z,1.57
2018-06-17T16:51:47.262Z,1.30
2018-06-17T16:54:21.525Z,1.60
2018-06-17T16:56:55.752Z,1.37
2018-06-17T16:59:30.070Z,1.20
2018-06-17T17:01:58.826Z,1.73
2018-06-17T17:04:27.596Z,1.40
2018-06-17T17:06:56.469Z,2.37
2018-06-17T17:09:25.196Z,4.00
2018-06-17T17:11:53.919Z,1.60
2018-06-17T17:14:22.811Z,1.50
2018-06-17T17:16:51.580Z,1.67
2018-06-17T17:19:20.139Z,1.60
2018-06-17T17:21:48.775Z,1.40
2018-06-17T17:24:17.520Z,2.17
2018-06-17T17:26:46.244Z,2.00
2018-06-17T17:29:15.147Z,1.60
2018-06-17T17:31:49.528Z,1.70
2018-06-17T17:34:23.648Z,1.70
2018-06-17T17:36:57.916Z,2.67
2018-06-17T17:39:33.190Z,1.87
2018-06-17T17:42:01.923Z,2.50
2018-06-17T17:44:34.985Z,2.60
2018-06-17T17:47:09.219Z,1.80
2018-06-17T17:49:37.667Z,2.10
2018-06-17T17:52:06.396Z,2.40
2018-06-17T17:54:35.139Z,1.80
2018-06-17T17:57:03.907Z,2.00
2018-06-17T17:59:32.633Z,2.20
2018-06-17T18:02:01.207Z,1.83
2018-06-17T18:04:29.803Z,3.17
2018-06-17T18:06:58.399Z,2.00
2018-06-17T18:09:27.056Z,1.97
2018-06-17T18:11:55.785Z,2.00
2018-06-17T18:14:24.618Z,1.87
2018-06-17T18:16:53.350Z,1.70
2018-06-17T18:19:22.127Z,1.60
2018-06-17T18:21:50.933Z,2.10
2018-06-17T18:24:19.759Z,2.50
2018-06-17T18:26:54.019Z,2.30
2018-06-17T18:29:28.380Z,1.90
2018-06-17T18:32:02.535Z,2.00
2018-06-17T18:34:36.903Z,2.37
2018-06-17T18:37:05.821Z,2.20
2018-06-17T18:39:34.555Z,1.80
2018-06-17T18:42:03.312Z,1.90
2018-06-17T18:44:32.048Z,2.00
2018-06-17T18:47:00.798Z,2.00
2018-06-17T18:49:29.559Z,2.10
2018-06-17T18:51:58.322Z,2.00
2018-06-17T18:54:27.051Z,1.93
2018-06-17T18:56:55.824Z,2.00
2018-06-17T18:59:24.571Z,2.60
2018-06-17T19:01:53.118Z,2.20
2018-06-17T19:04:21.954Z,2.30
2018-06-17T19:06:50.749Z,2.30
2018-06-17T19:09:24.909Z,2.37
2018-06-17T19:11:59.193Z,4.30
2018-06-17T19:14:33.691Z,9.57
2018-06-17T19:17:07.875Z,3.97
2018-06-17T19:19:36.956Z,2.57
2018-06-17T19:22:05.768Z,2.27
2018-06-17T19:24:34.623Z,2.27
2018-06-17T19:27:03.388Z,2.40
2018-06-17T19:29:32.143Z,2.70
2018-06-17T19:32:00.762Z,1.90
2018-06-17T19:34:29.434Z,2.07
2018-06-17T19:36:58.253Z,2.00
2018-06-17T19:39:27.004Z,2.03
2018-06-17T19:41:55.755Z,2.10
2018-06-17T19:44:24.531Z,2.70
2018-06-17T19:46:53.270Z,2.03
2018-06-17T19:49:26.308Z,1.93
2018-06-17T19:52:00.751Z,2.37
2018-06-17T19:54:34.903Z,3.47
2018-06-17T19:57:09.123Z,2.67
2018-06-17T19:59:43.407Z,1.80
2018-06-17T20:02:12.024Z,2.37
2018-06-17T20:04:40.978Z,2.80
2018-06-17T20:07:09.653Z,2.27
2018-06-17T20:09:38.473Z,2.50
2018-06-17T20:12:07.048Z,2.10
2018-06-17T20:14:35.683Z,5.10
2018-06-17T20:17:04.626Z,2.73
2018-06-17T20:19:33.472Z,2.10
2018-06-17T20:22:02.285Z,2.37
2018-06-17T20:24:31.057Z,2.53
2018-06-17T20:27:00.709Z,2.60
2018-06-17T20:29:29.538Z,2.43
2018-06-17T20:32:03.853Z,3.03
2018-06-17T20:34:38.328Z,2.60
2018-06-17T20:37:12.756Z,2.23
2018-06-17T20:39:47.075Z,9.20
2018-06-17T20:42:21.572Z,5.90
2018-06-17T20:44:50.383Z,3.47
2018-06-17T20:47:19.166Z,2.60
2018-06-17T20:49:47.797Z,2.90
2018-06-17T20:52:16.536Z,2.73
2018-06-17T20:54:45.286Z,2.77
2018-06-17T20:57:14.143Z,2.57
2018-06-17T20:59:42.896Z,2.97
2018-06-17T21:02:11.743Z,2.37
2018-06-17T21:04:40.937Z,2.23
2018-06-17T21:07:09.742Z,2.37
2018-06-17T21:09:38.624Z,2.60
2018-06-17T21:12:07.492Z,3.07
2018-06-17T21:14:36.308Z,2.77
2018-06-17T21:17:05.137Z,2.80
2018-06-17T21:19:39.391Z,3.07
2018-06-17T21:22:13.862Z,3.30
2018-06-17T21:24:48.213Z,2.60
2018-06-17T21:27:22.485Z,2.70
2018-06-17T21:29:51.284Z,3.47
2018-06-17T21:32:20.007Z,2.90
2018-06-17T21:34:48.810Z,2.40
2018-06-17T21:37:17.567Z,2.60
2018-06-17T21:39:46.595Z,2.77
2018-06-17T21:42:15.349Z,2.93
2018-06-17T21:44:44.105Z,3.07
2018-06-17T21:47:12.824Z,3.17
2018-06-17T21:49:41.791Z,3.93
2018-06-17T21:52:10.557Z,3.17
2018-06-17T21:54:39.318Z,3.73
2018-06-17T21:57:07.928Z,3.10
2018-06-17T21:59:36.410Z,2.73
2018-06-17T22:02:05.037Z,2.90
2018-06-17T22:04:39.800Z,3.23
2018-06-17T22:07:09.743Z,3.10
2018-06-17T22:09:43.746Z,3.40
2018-06-17T22:12:18.106Z,2.87
2018-06-17T22:14:52.268Z,2.90
2018-06-17T22:17:26.536Z,3.17
2018-06-17T22:19:55.284Z,3.00
2018-06-17T22:22:24.083Z,3.33
2018-06-17T22:24:52.827Z,2.87
2018-06-17T22:27:21.613Z,3.57
2018-06-17T22:29:50.359Z,3.30
2018-06-17T22:32:19.118Z,3.30
2018-06-17T22:34:47.932Z,3.33
2018-06-17T22:37:16.698Z,3.30
2018-06-17T22:39:45.457Z,3.63
2018-06-17T22:42:14.269Z,3.37
2018-06-17T22:44:43.065Z,3.37
2018-06-17T22:47:11.830Z,3.00
2018-06-17T22:49:40.443Z,3.60
2018-06-17T22:52:08.931Z,3.50
2018-06-17T22:54:49.187Z,3.33
2018-06-17T22:57:23.494Z,3.70
2018-06-17T22:59:57.656Z,3.37
2018-06-17T23:02:31.839Z,3.47
2018-06-17T23:05:06.152Z,3.20
2018-06-17T23:07:40.519Z,2.87
2018-06-17T23:10:10.826Z,3.33
2018-06-17T23:12:39.765Z,2.87
2018-06-17T23:15:08.340Z,2.70
2018-06-17T23:17:37.004Z,2.90
2018-06-17T23:20:05.737Z,3.17
2018-06-17T23:22:34.518Z,3.20
2018-06-17T23:25:03.284Z,3.10
2018-06-17T23:27:32.103Z,4.00
2018-06-17T23:30:00.881Z,4.23
2018-06-17T23:32:29.571Z,4.10
2018-06-17T23:34:58.170Z,5.47
2018-06-17T23:37:26.943Z,4.90
2018-06-17T23:39:55.711Z,3.13
2018-06-17T23:42:24.460Z,3.27
2018-06-17T23:44:53.223Z,3.20
2018-06-17T23:47:27.544Z,3.77
2018-06-17T23:50:01.748Z,3.03
2018-06-17T23:52:35.958Z,3.67
2018-06-17T23:55:10.893Z,3.50
2018-06-17T23:57:39.627Z,3.63
